sensor_id;sensor_type;location;lat;lon;timestamp;temperature;humidity
16838;DHT22;19510;54.486;9.046;2022-08-19T04:46:10;18.60;99.90
16838;DHT22;19510;54.486;9.046;2022-08-19T04:48:36;18.60;99.90
16838;DHT22;19510;54.486;9.046;2022-08-19T04:51:07;18.60;99.90
16838;DHT22;19510;54.486;9.046;2022-08-19T04:53:34;18.60;99.90
16838;DHT22;19510;54.486;9.046;2022-08-19T04:56:11;18.60;99.90
16838;DHT22;19510;54.486;9.046;2022-08-19T04:58:39;18.60;99.90
16838;DHT22;19510;54.486;9.046;2022-08-19T05:01:07;18.60;99.90
16838;DHT22;19510;54.486;9.046;2022-08-19T05:03:34;18.70;99.90
16838;DHT22;19510;54.486;9.046;2022-08-19T05:06:08;18.80;99.90
16838;DHT22;19510;54.486;9.046;2022-08-19T05:08:37;18.80;99.90
16838;DHT22;19510;54.486;9.046;2022-08-19T05:11:13;18.80;99.90
16838;DHT22;19510;54.486;9.046;2022-08-19T05:13:40;18.80;99.90
16838;DHT22;19510;54.486;9.046;2022-08-19T05:16:09;18.80;99.90
16838;DHT22;19510;54.486;9.046;2022-08-19T05:18:35;18.80;99.90
16838;DHT22;19510;54.486;9.046;2022-08-19T05:21:21;18.80;99.90
16838;DHT22;19510;54.486;9.046;2022-08-19T05:24:08;18.80;99.90
16838;DHT22;19510;54.486;9.046;2022-08-19T05:26:36;18.80;99.90
16838;DHT22;19510;54.486;9.046;2022-08-19T05:29:10;18.80;99.90
16838;DHT22;19510;54.486;9.046;2022-08-19T05:31:36;18.80;99.90
16838;DHT22;19510;54.486;9.046;2022-08-19T05:34:05;18.80;99.90
16838;DHT22;19510;54.486;9.046;2022-08-19T05:36:35;18.90;99.90
16838;DHT22;19510;54.486;9.046;2022-08-19T05:39:06;18.90;99.90
16838;DHT22;19510;54.486;9.046;2022-08-19T05:41:34;18.80;99.90
16838;DHT22;19510;54.486;9.046;2022-08-19T05:44:04;18.80;99.90
16838;DHT22;19510;54.486;9.046;2022-08-19T05:46:35;18.80;99.90
16838;DHT22;19510;54.486;9.046;2022-08-19T05:49:03;18.80;99.90
16838;DHT22;19510;54.486;9.046;2022-08-19T05:51:38;18.80;99.90
16838;DHT22;19510;54.486;9.046;2022-08-19T05:54:05;18.80;99.90
16838;DHT22;19510;54.486;9.046;2022-08-19T05:56:33;18.70;99.90
16838;DHT22;19510;54.486;9.046;2022-08-19T05:59:03;18.80;99.90
16838;DHT22;19510;54.486;9.046;2022-08-19T06:01:35;18.90;99.90
16838;DHT22;19510;54.486;9.046;2022-08-19T06:04:02;18.80;99.90
16838;DHT22;19510;54.486;9.046;2022-08-19T06:06:28;18.80;99.90
16838;DHT22;19510;54.486;9.046;2022-08-19T06:08:53;18.80;99.90
16838;DHT22;19510;54.486;9.046;2022-08-19T06:13:46;18.80;99.90
16838;DHT22;19510;54.486;9.046;2022-08-19T06:16:13;18.80;99.90
16838;DHT22;19510;54.486;9.046;2022-08-19T06:18:46;18.70;99.90
16838;DHT22;19510;54.486;9.046;2022-08-19T06:21:12;18.70;99.90
16838;DHT22;19510;54.486;9.046;2022-08-19T06:23:38;18.80;99.90
16838;DHT22;19510;54.486;9.046;2022-08-19T06:26:04;18.70;99.90
16838;DHT22;19510;54.486;9.046;2022-08-19T06:28:30;18.70;99.90
16838;DHT22;19510;54.486;9.046;2022-08-19T06:30:55;18.70;99.90
16838;DHT22;19510;54.486;9.046;2022-08-19T06:33:21;18.70;99.90
16838;DHT22;19510;54.486;9.046;2022-08-19T06:35:46;18.70;99.90
16838;DHT22;19510;54.486;9.046;2022-08-19T06:38:15;18.80;99.90
16838;DHT22;19510;54.486;9.046;2022-08-19T06:40:42;18.80;99.90
16838;DHT22;19510;54.486;9.046;2022-08-19T06:43:08;18.80;99.90
16838;DHT22;19510;54.486;9.046;2022-08-19T06:45:36;18.80;99.90
16838;DHT22;19510;54.486;9.046;2022-08-19T06:48:04;18.80;99.90
16838;DHT22;19510;54.486;9.046;2022-08-19T06:50:32;18.80;99.90
16838;DHT22;19510;54.486;9.046;2022-08-19T06:52:58;18.80;99.90
16838;DHT22;19510;54.486;9.046;2022-08-19T06:55:26;18.80;99.90
16838;DHT22;19510;54.486;9.046;2022-08-19T06:57:56;18.70;99.90
16838;DHT22;19510;54.486;9.046;2022-08-19T07:00:22;18.70;99.90
16838;DHT22;19510;54.486;9.046;2022-08-19T07:02:48;18.70;99.90
16838;DHT22;19510;54.486;9.046;2022-08-19T07:05:14;18.70;99.90
16838;DHT22;19510;54.486;9.046;2022-08-19T07:07:40;18.60;99.90
16838;DHT22;19510;54.486;9.046;2022-08-19T07:10:08;18.60;99.90
16838;DHT22;19510;54.486;9.046;2022-08-19T07:12:34;18.70;99.90
16838;DHT22;19510;54.486;9.046;2022-08-19T07:15:00;18.70;99.90
16838;DHT22;19510;54.486;9.046;2022-08-19T07:17:26;18.70;99.90
16838;DHT22;19510;54.486;9.046;2022-08-19T07:19:52;18.70;99.90
16838;DHT22;19510;54.486;9.046;2022-08-19T07:22:18;18.80;99.90
16838;DHT22;19510;54.486;9.046;2022-08-19T07:24:45;18.80;99.90
16838;DHT22;19510;54.486;9.046;2022-08-19T07:27:13;18.90;99.90
16838;DHT22;19510;54.486;9.046;2022-08-19T07:29:39;18.90;99.90
16838;DHT22;19510;54.486;9.046;2022-08-19T07:32:07;18.90;99.90
16838;DHT22;19510;54.486;9.046;2022-08-19T07:34:34;19.00;99.90
16838;DHT22;19510;54.486;9.046;2022-08-19T07:37:04;19.00;99.90
16838;DHT22;19510;54.486;9.046;2022-08-19T07:39:33;19.20;99.90
16838;DHT22;19510;54.486;9.046;2022-08-19T07:42:01;19.20;99.90
16838;DHT22;19510;54.486;9.046;2022-08-19T07:44:29;19.30;99.90
16838;DHT22;19510;54.486;9.046;2022-08-19T07:46:57;19.30;99.90
16838;DHT22;19510;54.486;9.046;2022-08-19T07:49:23;19.40;99.90
16838;DHT22;19510;54.486;9.046;2022-08-19T07:51:53;19.40;99.90
16838;DHT22;19510;54.486;9.046;2022-08-19T07:54:21;19.40;99.90
16838;DHT22;19510;54.486;9.046;2022-08-19T07:56:47;19.40;99.90
16838;DHT22;19510;54.486;9.046;2022-08-19T07:59:19;19.50;99.90
16838;DHT22;19510;54.486;9.046;2022-08-19T08:01:45;19.50;99.90
16838;DHT22;19510;54.486;9.046;2022-08-19T08:04:11;19.50;99.90
16838;DHT22;19510;54.486;9.046;2022-08-19T08:06:56;19.60;99.90
16838;DHT22;19510;54.486;9.046;2022-08-19T08:09:41;19.60;99.90
16838;DHT22;19510;54.486;9.046;2022-08-19T08:12:22;19.70;99.90
16838;DHT22;19510;54.486;9.046;2022-08-19T08:14:52;19.90;99.90
16838;DHT22;19510;54.486;9.046;2022-08-19T08:17:20;19.90;99.90
16838;DHT22;19510;54.486;9.046;2022-08-19T08:19:47;19.90;99.90
16838;DHT22;19510;54.486;9.046;2022-08-19T08:22:17;19.90;99.90
16838;DHT22;19510;54.486;9.046;2022-08-19T08:25:15;20.00;99.90
16838;DHT22;19510;54.486;9.046;2022-08-19T08:27:43;20.00;99.90
16838;DHT22;19510;54.486;9.046;2022-08-19T08:30:19;19.90;99.90
16838;DHT22;19510;54.486;9.046;2022-08-19T08:32:45;19.90;99.90
16838;DHT22;19510;54.486;9.046;2022-08-19T08:35:18;19.90;99.90
16838;DHT22;19510;54.486;9.046;2022-08-19T08:37:44;20.00;99.90
16838;DHT22;19510;54.486;9.046;2022-08-19T08:43:00;20.10;99.90
16838;DHT22;19510;54.486;9.046;2022-08-19T08:45:30;20.20;99.90
16838;DHT22;19510;54.486;9.046;2022-08-19T08:48:15;20.20;99.90
16838;DHT22;19510;54.486;9.046;2022-08-19T08:50:44;20.30;99.90
16838;DHT22;19510;54.486;9.046;2022-08-19T08:53:13;20.40;99.90
16838;DHT22;19510;54.486;9.046;2022-08-19T08:55:42;20.50;99.90
16838;DHT22;19510;54.486;9.046;2022-08-19T08:58:29;20.50;99.90
16838;DHT22;19510;54.486;9.046;2022-08-19T09:00:57;20.40;99.90
16838;DHT22;19510;54.486;9.046;2022-08-19T09:03:26;20.60;99.90
16838;DHT22;19510;54.486;9.046;2022-08-19T09:16:53;20.80;99.90
16838;DHT22;19510;54.486;9.046;2022-08-19T09:19:19;20.80;99.90
16838;DHT22;19510;54.486;9.046;2022-08-19T09:21:44;20.80;99.90
16838;DHT22;19510;54.486;9.046;2022-08-19T09:24:12;20.80;99.90
16838;DHT22;19510;54.486;9.046;2022-08-19T09:26:37;20.80;99.90
16838;DHT22;19510;54.486;9.046;2022-08-19T09:29:05;20.90;99.90
16838;DHT22;19510;54.486;9.046;2022-08-19T09:31:32;20.90;99.90
16838;DHT22;19510;54.486;9.046;2022-08-19T09:33:58;20.90;99.90
16838;DHT22;19510;54.486;9.046;2022-08-19T09:36:26;20.90;99.90
16838;DHT22;19510;54.486;9.046;2022-08-19T09:38:57;20.80;99.90
16838;DHT22;19510;54.486;9.046;2022-08-19T09:41:25;20.80;99.90
16838;DHT22;19510;54.486;9.046;2022-08-19T09:43:53;20.90;99.90
16838;DHT22;19510;54.486;9.046;2022-08-19T09:46:21;20.90;99.90
16838;DHT22;19510;54.486;9.046;2022-08-19T09:48:48;21.00;99.90
16838;DHT22;19510;54.486;9.046;2022-08-19T09:51:17;21.00;99.90
16838;DHT22;19510;54.486;9.046;2022-08-19T09:53:44;21.00;99.90
16838;DHT22;19510;54.486;9.046;2022-08-19T09:56:11;21.00;99.90
16838;DHT22;19510;54.486;9.046;2022-08-19T09:58:38;21.10;99.90
16838;DHT22;19510;54.486;9.046;2022-08-19T10:01:05;21.20;99.90
16838;DHT22;19510;54.486;9.046;2022-08-19T10:03:36;21.30;99.90
16838;DHT22;19510;54.486;9.046;2022-08-19T10:06:04;21.30;99.90
16838;DHT22;19510;54.486;9.046;2022-08-19T10:08:35;21.40;99.90
16838;DHT22;19510;54.486;9.046;2022-08-19T10:11:03;21.50;99.90
16838;DHT22;19510;54.486;9.046;2022-08-19T10:13:30;21.60;99.90
16838;DHT22;19510;54.486;9.046;2022-08-19T10:16:06;21.60;99.90
16838;DHT22;19510;54.486;9.046;2022-08-19T10:18:33;21.70;99.90
16838;DHT22;19510;54.486;9.046;2022-08-19T10:21:08;21.70;99.90
16838;DHT22;19510;54.486;9.046;2022-08-19T10:23:40;21.80;99.90
16838;DHT22;19510;54.486;9.046;2022-08-19T10:26:07;21.80;99.90
16838;DHT22;19510;54.486;9.046;2022-08-19T10:28:34;21.90;99.90
16838;DHT22;19510;54.486;9.046;2022-08-19T10:31:11;21.90;99.90
16838;DHT22;19510;54.486;9.046;2022-08-19T10:33:39;22.00;99.90
16838;DHT22;19510;54.486;9.046;2022-08-19T10:36:12;22.10;99.90
16838;DHT22;19510;54.486;9.046;2022-08-19T10:38:41;22.10;99.90
16838;DHT22;19510;54.486;9.046;2022-08-19T10:41:12;22.20;99.90
16838;DHT22;19510;54.486;9.046;2022-08-19T10:43:40;22.30;99.90
16838;DHT22;19510;54.486;9.046;2022-08-19T10:46:08;22.40;99.90
16838;DHT22;19510;54.486;9.046;2022-08-19T10:48:36;22.40;99.90
16838;DHT22;19510;54.486;9.046;2022-08-19T10:51:03;22.40;99.90
16838;DHT22;19510;54.486;9.046;2022-08-19T10:53:47;22.40;99.90
16838;DHT22;19510;54.486;9.046;2022-08-19T10:56:14;22.50;99.90
16838;DHT22;19510;54.486;9.046;2022-08-19T10:58:59;22.60;99.90
16838;DHT22;19510;54.486;9.046;2022-08-19T11:01:26;22.60;99.90
16838;DHT22;19510;54.486;9.046;2022-08-19T11:03:56;22.70;99.90
16838;DHT22;19510;54.486;9.046;2022-08-19T11:06:23;22.90;99.90
16838;DHT22;19510;54.486;9.046;2022-08-19T11:08:51;23.00;99.90
16838;DHT22;19510;54.486;9.046;2022-08-19T11:11:21;23.10;99.90
16838;DHT22;19510;54.486;9.046;2022-08-19T11:13:48;23.20;99.90
16838;DHT22;19510;54.486;9.046;2022-08-19T11:16:20;23.30;99.90
16838;DHT22;19510;54.486;9.046;2022-08-19T11:18:53;23.40;99.90
16838;DHT22;19510;54.486;9.046;2022-08-19T11:21:22;23.40;99.90
16838;DHT22;19510;54.486;9.046;2022-08-19T11:23:50;23.50;99.90
16838;DHT22;19510;54.486;9.046;2022-08-19T11:26:18;23.40;99.90
16838;DHT22;19510;54.486;9.046;2022-08-19T11:28:44;23.40;99.90
16838;DHT22;19510;54.486;9.046;2022-08-19T11:31:15;23.40;99.90
16838;DHT22;19510;54.486;9.046;2022-08-19T11:33:42;23.40;99.90
16838;DHT22;19510;54.486;9.046;2022-08-19T11:36:10;23.40;99.90
16838;DHT22;19510;54.486;9.046;2022-08-19T11:38:38;23.60;99.90
16838;DHT22;19510;54.486;9.046;2022-08-19T11:41:06;23.70;99.90
16838;DHT22;19510;54.486;9.046;2022-08-19T11:43:36;23.70;99.90
16838;DHT22;19510;54.486;9.046;2022-08-19T11:46:06;23.70;99.90
16838;DHT22;19510;54.486;9.046;2022-08-19T11:48:32;23.70;99.90
16838;DHT22;19510;54.486;9.046;2022-08-19T11:50:58;23.60;99.90
16838;DHT22;19510;54.486;9.046;2022-08-19T11:53:24;23.60;99.90
16838;DHT22;19510;54.486;9.046;2022-08-19T11:55:52;23.60;99.90
16838;DHT22;19510;54.486;9.046;2022-08-19T11:58:23;23.70;99.90
16838;DHT22;19510;54.486;9.046;2022-08-19T12:00:51;23.70;99.90
16838;DHT22;19510;54.486;9.046;2022-08-19T12:03:17;23.70;99.90
16838;DHT22;19510;54.486;9.046;2022-08-19T12:05:45;23.60;99.90
16838;DHT22;19510;54.486;9.046;2022-08-19T12:08:11;23.60;99.90
16838;DHT22;19510;54.486;9.046;2022-08-19T12:10:38;23.60;99.90
16838;DHT22;19510;54.486;9.046;2022-08-19T12:13:04;23.70;99.90
16838;DHT22;19510;54.486;9.046;2022-08-19T12:15:30;23.70;99.90
16838;DHT22;19510;54.486;9.046;2022-08-19T12:18:07;23.70;99.90
16838;DHT22;19510;54.486;9.046;2022-08-19T12:20:38;23.70;99.90
16838;DHT22;19510;54.486;9.046;2022-08-19T12:23:07;23.60;99.90
16838;DHT22;19510;54.486;9.046;2022-08-19T12:25:35;23.60;99.90
16838;DHT22;19510;54.486;9.046;2022-08-19T12:28:03;23.60;99.90
16838;DHT22;19510;54.486;9.046;2022-08-19T12:30:29;23.60;99.90
16838;DHT22;19510;54.486;9.046;2022-08-19T12:32:54;23.50;99.90
16838;DHT22;19510;54.486;9.046;2022-08-19T12:35:20;23.60;99.90
16838;DHT22;19510;54.486;9.046;2022-08-19T12:37:48;23.80;99.90
16838;DHT22;19510;54.486;9.046;2022-08-19T12:40:15;23.80;99.90
16838;DHT22;19510;54.486;9.046;2022-08-19T12:42:42;23.90;99.90
16838;DHT22;19510;54.486;9.046;2022-08-19T12:45:12;24.00;99.90
16838;DHT22;19510;54.486;9.046;2022-08-19T12:47:39;24.00;99.90
16838;DHT22;19510;54.486;9.046;2022-08-19T12:50:06;24.00;99.90
16838;DHT22;19510;54.486;9.046;2022-08-19T12:52:37;24.10;99.90
16838;DHT22;19510;54.486;9.046;2022-08-19T12:55:05;24.20;99.90
16838;DHT22;19510;54.486;9.046;2022-08-19T12:57:31;24.20;99.90
16838;DHT22;19510;54.486;9.046;2022-08-19T13:02:27;24.40;99.90
16838;DHT22;19510;54.486;9.046;2022-08-19T13:04:52;24.40;99.90
16838;DHT22;19510;54.486;9.046;2022-08-19T13:07:19;24.40;99.90
16838;DHT22;19510;54.486;9.046;2022-08-19T13:09:44;24.50;99.90
16838;DHT22;19510;54.486;9.046;2022-08-19T13:12:10;24.90;99.90
16838;DHT22;19510;54.486;9.046;2022-08-19T13:14:41;25.10;99.90
16838;DHT22;19510;54.486;9.046;2022-08-19T13:17:07;25.60;99.90
16838;DHT22;19510;54.486;9.046;2022-08-19T13:19:36;25.90;99.90
16838;DHT22;19510;54.486;9.046;2022-08-19T13:22:02;25.90;99.90
16838;DHT22;19510;54.486;9.046;2022-08-19T13:24:27;26.00;99.90
16838;DHT22;19510;54.486;9.046;2022-08-19T13:26:53;25.90;99.90
16838;DHT22;19510;54.486;9.046;2022-08-19T13:29:21;25.90;99.90
16838;DHT22;19510;54.486;9.046;2022-08-19T13:32:05;25.70;99.90
16838;DHT22;19510;54.486;9.046;2022-08-19T13:34:49;25.60;99.90
16838;DHT22;19510;54.486;9.046;2022-08-19T13:37:15;25.40;99.90
16838;DHT22;19510;54.486;9.046;2022-08-19T13:39:40;25.30;99.90
16838;DHT22;19510;54.486;9.046;2022-08-19T13:42:06;25.30;99.90
16838;DHT22;19510;54.486;9.046;2022-08-19T13:44:33;25.20;99.90
16838;DHT22;19510;54.486;9.046;2022-08-19T13:47:04;25.10;99.90
16838;DHT22;19510;54.486;9.046;2022-08-19T13:49:32;25.00;99.90
16838;DHT22;19510;54.486;9.046;2022-08-19T13:51:58;24.90;99.90
16838;DHT22;19510;54.486;9.046;2022-08-19T13:54:24;24.70;99.90
16838;DHT22;19510;54.486;9.046;2022-08-19T13:56:49;24.90;99.90
16838;DHT22;19510;54.486;9.046;2022-08-19T13:59:15;25.00;99.90
16838;DHT22;19510;54.486;9.046;2022-08-19T14:01:42;25.10;99.90
16838;DHT22;19510;54.486;9.046;2022-08-19T14:04:11;25.10;99.90
16838;DHT22;19510;54.486;9.046;2022-08-19T14:06:36;25.40;99.90
16838;DHT22;19510;54.486;9.046;2022-08-19T14:09:02;25.70;99.90
16838;DHT22;19510;54.486;9.046;2022-08-19T14:11:29;25.90;99.90
16838;DHT22;19510;54.486;9.046;2022-08-19T14:13:57;26.20;99.90
16838;DHT22;19510;54.486;9.046;2022-08-19T14:16:22;26.40;99.90
16838;DHT22;19510;54.486;9.046;2022-08-19T14:18:48;26.40;99.90
16838;DHT22;19510;54.486;9.046;2022-08-19T14:21:20;26.70;99.90
16838;DHT22;19510;54.486;9.046;2022-08-19T14:23:47;26.70;99.90
16838;DHT22;19510;54.486;9.046;2022-08-19T14:26:16;26.60;99.90
16838;DHT22;19510;54.486;9.046;2022-08-19T14:28:43;26.40;99.90
16838;DHT22;19510;54.486;9.046;2022-08-19T14:31:13;26.40;99.90
16838;DHT22;19510;54.486;9.046;2022-08-19T14:33:44;26.50;99.90
16838;DHT22;19510;54.486;9.046;2022-08-19T14:36:09;26.60;99.90
16838;DHT22;19510;54.486;9.046;2022-08-19T14:38:35;26.60;99.90
16838;DHT22;19510;54.486;9.046;2022-08-19T14:41:13;26.60;99.90
16838;DHT22;19510;54.486;9.046;2022-08-19T14:43:41;26.90;99.90
16838;DHT22;19510;54.486;9.046;2022-08-19T14:46:07;27.00;99.90
16838;DHT22;19510;54.486;9.046;2022-08-19T14:48:33;27.20;99.90
16838;DHT22;19510;54.486;9.046;2022-08-19T14:51:01;27.20;99.90
16838;DHT22;19510;54.486;9.046;2022-08-19T14:53:27;27.10;99.90
16838;DHT22;19510;54.486;9.046;2022-08-19T14:55:53;27.30;99.90
16838;DHT22;19510;54.486;9.046;2022-08-19T14:58:18;27.40;99.90
16838;DHT22;19510;54.486;9.046;2022-08-19T15:00:45;27.50;99.90
16838;DHT22;19510;54.486;9.046;2022-08-19T15:03:13;27.60;99.90
16838;DHT22;19510;54.486;9.046;2022-08-19T15:05:38;27.60;99.90
16838;DHT22;19510;54.486;9.046;2022-08-19T15:08:04;27.70;99.90
16838;DHT22;19510;54.486;9.046;2022-08-19T15:10:30;27.70;99.90
16838;DHT22;19510;54.486;9.046;2022-08-19T15:12:59;27.80;99.90
16838;DHT22;19510;54.486;9.046;2022-08-19T15:15:25;27.80;99.90
16838;DHT22;19510;54.486;9.046;2022-08-19T15:17:50;27.70;99.90
16838;DHT22;19510;54.486;9.046;2022-08-19T15:20:21;27.60;99.90
16838;DHT22;19510;54.486;9.046;2022-08-19T15:22:48;27.60;99.90
16838;DHT22;19510;54.486;9.046;2022-08-19T15:25:16;27.70;99.90
16838;DHT22;19510;54.486;9.046;2022-08-19T15:27:42;27.90;99.90
16838;DHT22;19510;54.486;9.046;2022-08-19T15:30:10;27.80;99.90
16838;DHT22;19510;54.486;9.046;2022-08-19T15:32:37;28.00;99.90
16838;DHT22;19510;54.486;9.046;2022-08-19T15:35:04;28.10;99.90
16838;DHT22;19510;54.486;9.046;2022-08-19T15:44:17;28.20;99.90
16838;DHT22;19510;54.486;9.046;2022-08-19T15:46:45;28.30;99.90
16838;DHT22;19510;54.486;9.046;2022-08-19T15:49:14;28.20;99.90
16838;DHT22;19510;54.486;9.046;2022-08-19T15:51:41;28.10;99.90
16838;DHT22;19510;54.486;9.046;2022-08-19T15:54:11;28.20;99.90
16838;DHT22;19510;54.486;9.046;2022-08-19T15:56:38;28.10;99.90
16838;DHT22;19510;54.486;9.046;2022-08-19T15:59:22;28.00;99.90
16838;DHT22;19510;54.486;9.046;2022-08-19T16:02:11;27.90;99.90
16838;DHT22;19510;54.486;9.046;2022-08-19T16:04:55;27.70;99.90
16838;DHT22;19510;54.486;9.046;2022-08-19T16:07:39;27.60;99.90
16838;DHT22;19510;54.486;9.046;2022-08-19T16:10:06;27.30;99.90
16838;DHT22;19510;54.486;9.046;2022-08-19T16:12:32;27.00;99.90
16838;DHT22;19510;54.486;9.046;2022-08-19T16:14:58;26.90;99.90
16838;DHT22;19510;54.486;9.046;2022-08-19T16:17:24;26.60;99.90
16838;DHT22;19510;54.486;9.046;2022-08-19T16:19:52;26.40;99.90
16838;DHT22;19510;54.486;9.046;2022-08-19T16:22:17;26.20;99.90
16838;DHT22;19510;54.486;9.046;2022-08-19T16:24:44;26.00;99.90
16838;DHT22;19510;54.486;9.046;2022-08-19T16:27:09;25.90;99.90
16838;DHT22;19510;54.486;9.046;2022-08-19T16:29:35;25.80;99.90
16838;DHT22;19510;54.486;9.046;2022-08-19T16:32:03;25.60;99.90
16838;DHT22;19510;54.486;9.046;2022-08-19T16:34:34;25.50;99.90
16838;DHT22;19510;54.486;9.046;2022-08-19T16:37:00;25.40;99.90
16838;DHT22;19510;54.486;9.046;2022-08-19T16:39:28;25.40;99.90
16838;DHT22;19510;54.486;9.046;2022-08-19T16:41:57;25.20;99.90
16838;DHT22;19510;54.486;9.046;2022-08-19T16:44:25;25.20;99.90
16838;DHT22;19510;54.486;9.046;2022-08-19T16:46:52;25.10;99.90
16838;DHT22;19510;54.486;9.046;2022-08-19T16:49:18;25.00;99.90
16838;DHT22;19510;54.486;9.046;2022-08-19T16:51:46;25.00;99.90
16838;DHT22;19510;54.486;9.046;2022-08-19T16:54:13;25.00;99.90
16838;DHT22;19510;54.486;9.046;2022-08-19T16:56:43;24.90;99.90
16838;DHT22;19510;54.486;9.046;2022-08-19T16:59:09;24.90;99.90
16838;DHT22;19510;54.486;9.046;2022-08-19T17:01:35;24.80;99.90
16838;DHT22;19510;54.486;9.046;2022-08-19T17:04:00;24.70;99.90
16838;DHT22;19510;54.486;9.046;2022-08-19T17:06:28;24.60;99.90
16838;DHT22;19510;54.486;9.046;2022-08-19T17:08:58;24.60;99.90
16838;DHT22;19510;54.486;9.046;2022-08-19T17:11:26;24.60;99.90
16838;DHT22;19510;54.486;9.046;2022-08-19T17:13:53;24.50;99.90
16838;DHT22;19510;54.486;9.046;2022-08-19T17:16:22;24.50;99.90
16838;DHT22;19510;54.486;9.046;2022-08-19T17:18:51;24.50;99.90
16838;DHT22;19510;54.486;9.046;2022-08-19T17:24:45;24.30;99.90
16838;DHT22;19510;54.486;9.046;2022-08-19T17:27:11;24.30;99.90
16838;DHT22;19510;54.486;9.046;2022-08-19T17:29:37;24.20;99.90
16838;DHT22;19510;54.486;9.046;2022-08-19T17:32:02;24.10;99.90
16838;DHT22;19510;54.486;9.046;2022-08-19T17:34:29;24.10;99.90
16838;DHT22;19510;54.486;9.046;2022-08-19T17:36:55;24.00;99.90
16838;DHT22;19510;54.486;9.046;2022-08-19T17:39:21;24.00;99.90
16838;DHT22;19510;54.486;9.046;2022-08-19T17:41:47;24.00;99.90
16838;DHT22;19510;54.486;9.046;2022-08-19T17:44:13;24.00;99.90
16838;DHT22;19510;54.486;9.046;2022-08-19T17:46:41;23.90;99.90
16838;DHT22;19510;54.486;9.046;2022-08-19T17:49:09;23.80;99.90
16838;DHT22;19510;54.486;9.046;2022-08-19T17:51:37;23.90;99.90
16838;DHT22;19510;54.486;9.046;2022-08-19T17:54:11;23.90;99.90
16838;DHT22;19510;54.486;9.046;2022-08-19T17:56:40;23.80;99.90
16838;DHT22;19510;54.486;9.046;2022-08-19T17:59:09;23.80;99.90
16838;DHT22;19510;54.486;9.046;2022-08-19T18:01:35;23.70;99.90
16838;DHT22;19510;54.486;9.046;2022-08-19T18:04:02;23.70;99.90
16838;DHT22;19510;54.486;9.046;2022-08-19T18:06:29;23.60;99.90
16838;DHT22;19510;54.486;9.046;2022-08-19T18:08:54;23.60;99.90
16838;DHT22;19510;54.486;9.046;2022-08-19T18:11:21;23.40;99.90
16838;DHT22;19510;54.486;9.046;2022-08-19T18:13:50;23.40;99.90
16838;DHT22;19510;54.486;9.046;2022-08-19T18:16:17;23.30;99.90
16838;DHT22;19510;54.486;9.046;2022-08-19T18:18:46;23.20;99.90
16838;DHT22;19510;54.486;9.046;2022-08-19T18:21:12;23.10;99.90
16838;DHT22;19510;54.486;9.046;2022-08-19T18:23:40;23.00;99.90
16838;DHT22;19510;54.486;9.046;2022-08-19T18:26:06;22.90;99.90
16838;DHT22;19510;54.486;9.046;2022-08-19T18:28:38;22.80;99.90
16838;DHT22;19510;54.486;9.046;2022-08-19T18:31:06;22.70;99.90
16838;DHT22;19510;54.486;9.046;2022-08-19T18:33:32;22.70;99.90
16838;DHT22;19510;54.486;9.046;2022-08-19T18:35:58;22.60;99.90
16838;DHT22;19510;54.486;9.046;2022-08-19T18:38:26;22.60;99.90
16838;DHT22;19510;54.486;9.046;2022-08-19T18:41:10;22.50;99.90
16838;DHT22;19510;54.486;9.046;2022-08-19T18:43:55;22.50;99.90
16838;DHT22;19510;54.486;9.046;2022-08-19T18:46:47;22.40;99.90
16838;DHT22;19510;54.486;9.046;2022-08-19T18:49:32;22.30;99.90
16838;DHT22;19510;54.486;9.046;2022-08-19T18:51:59;22.30;99.90
16838;DHT22;19510;54.486;9.046;2022-08-19T18:54:26;22.30;99.90
16838;DHT22;19510;54.486;9.046;2022-08-19T18:57:10;22.20;99.90
16838;DHT22;19510;54.486;9.046;2022-08-19T18:59:36;22.10;99.90
16838;DHT22;19510;54.486;9.046;2022-08-19T19:02:04;22.10;99.90
16838;DHT22;19510;54.486;9.046;2022-08-19T19:04:36;22.00;99.90
16838;DHT22;19510;54.486;9.046;2022-08-19T19:07:04;22.00;99.90
16838;DHT22;19510;54.486;9.046;2022-08-19T19:09:30;22.00;99.90
16838;DHT22;19510;54.486;9.046;2022-08-19T19:11:59;21.90;99.90
16838;DHT22;19510;54.486;9.046;2022-08-19T19:14:28;21.90;99.90
16838;DHT22;19510;54.486;9.046;2022-08-19T19:16:57;21.90;99.90
16838;DHT22;19510;54.486;9.046;2022-08-19T19:19:24;21.80;99.90
16838;DHT22;19510;54.486;9.046;2022-08-19T19:21:51;21.80;99.90
16838;DHT22;19510;54.486;9.046;2022-08-19T19:24:21;21.80;99.90
16838;DHT22;19510;54.486;9.046;2022-08-19T19:26:49;21.80;99.90
16838;DHT22;19510;54.486;9.046;2022-08-19T19:29:18;21.80;99.90
16838;DHT22;19510;54.486;9.046;2022-08-19T19:31:47;21.80;99.90
16838;DHT22;19510;54.486;9.046;2022-08-19T19:34:16;21.70;99.90
16838;DHT22;19510;54.486;9.046;2022-08-19T19:36:44;21.70;99.90
16838;DHT22;19510;54.486;9.046;2022-08-19T19:39:12;21.70;99.90
16838;DHT22;19510;54.486;9.046;2022-08-19T19:41:38;21.60;99.90
16838;DHT22;19510;54.486;9.046;2022-08-19T19:44:06;21.60;99.90
16838;DHT22;19510;54.486;9.046;2022-08-19T19:46:33;21.60;99.90
16838;DHT22;19510;54.486;9.046;2022-08-19T19:49:01;21.50;99.90
16838;DHT22;19510;54.486;9.046;2022-08-19T19:51:28;21.50;99.90
16838;DHT22;19510;54.486;9.046;2022-08-19T19:53:54;21.60;99.90
16838;DHT22;19510;54.486;9.046;2022-08-19T19:56:24;21.50;99.90
16838;DHT22;19510;54.486;9.046;2022-08-19T19:59:09;21.50;99.90
16838;DHT22;19510;54.486;9.046;2022-08-19T20:02:06;21.50;99.90
16838;DHT22;19510;54.486;9.046;2022-08-19T20:04:35;21.50;99.90
16838;DHT22;19510;54.486;9.046;2022-08-19T20:07:04;21.40;99.90
16838;DHT22;19510;54.486;9.046;2022-08-19T20:09:32;21.40;99.90
16838;DHT22;19510;54.486;9.046;2022-08-19T20:11:57;21.40;99.90
16838;DHT22;19510;54.486;9.046;2022-08-19T20:14:32;21.40;99.90
16838;DHT22;19510;54.486;9.046;2022-08-19T20:17:05;21.40;99.90
16838;DHT22;19510;54.486;9.046;2022-08-19T20:19:32;21.40;99.90
16838;DHT22;19510;54.486;9.046;2022-08-19T20:22:02;21.40;99.90
16838;DHT22;19510;54.486;9.046;2022-08-19T20:24:32;21.40;99.90
16838;DHT22;19510;54.486;9.046;2022-08-19T20:27:05;21.40;99.90
16838;DHT22;19510;54.486;9.046;2022-08-19T20:29:33;21.30;99.90
16838;DHT22;19510;54.486;9.046;2022-08-19T20:31:59;21.20;99.90
16838;DHT22;19510;54.486;9.046;2022-08-19T20:34:26;21.20;99.90
16838;DHT22;19510;54.486;9.046;2022-08-19T20:36:51;21.20;99.90
16838;DHT22;19510;54.486;9.046;2022-08-19T20:39:17;21.20;99.90
16838;DHT22;19510;54.486;9.046;2022-08-19T20:41:43;21.30;99.90
16838;DHT22;19510;54.486;9.046;2022-08-19T20:44:11;21.30;99.90
16838;DHT22;19510;54.486;9.046;2022-08-19T20:46:37;21.30;99.90
16838;DHT22;19510;54.486;9.046;2022-08-19T20:49:05;21.30;99.90
16838;DHT22;19510;54.486;9.046;2022-08-19T20:51:31;21.30;99.90
16838;DHT22;19510;54.486;9.046;2022-08-19T20:53:57;21.20;99.90